Time;durP1;ratioP1;P1;durP2;ratioP2;P2;SDS_P1;SDS_P2;PMS_P1;PMS_P2;Temp;Humidity;BMP_temperature;BMP_pressure;BME280_temperature;BME280_humidity;BME280_pressure;Samples;Min_cycle;Max_cycle;Signal;HPM_P1;HPM_P2
2021/08/25 00:01:13;;;;;;;21.25;13.20;;;14.30;99.90;;;;;;4973390;28;20813;-62
2021/08/25 00:03:39;;;;;;;19.38;13.40;;;14.30;99.90;;;;;;4972285;28;20903;-62
2021/08/25 00:06:04;;;;;;;21.20;13.40;;;14.30;99.90;;;;;;4973006;28;20385;-62
2021/08/25 00:08:30;;;;;;;21.55;14.05;;;14.10;99.90;;;;;;4972324;28;20872;-62
2021/08/25 00:10:56;;;;;;;19.27;13.70;;;14.00;99.90;;;;;;4973050;28;20892;-62
2021/08/25 00:13:21;;;;;;;22.55;14.20;;;14.00;99.90;;;;;;4972616;28;20400;-60
2021/08/25 00:15:47;;;;;;;21.07;14.10;;;13.90;99.90;;;;;;4972817;28;20389;-62
2021/08/25 00:18:13;;;;;;;21.65;14.23;;;13.90;99.90;;;;;;4973113;28;20753;-62
2021/08/25 00:20:39;;;;;;;22.00;14.83;;;14.00;99.90;;;;;;4972593;28;20918;-62
2021/08/25 00:23:06;;;;;;;21.73;14.10;;;14.00;99.90;;;;;;4972865;28;20872;-62
2021/08/25 00:25:34;;;;;;;21.77;14.23;;;14.10;99.90;;;;;;4971825;28;20929;-62
2021/08/25 00:28:00;;;;;;;20.40;13.80;;;14.00;99.90;;;;;;4973130;28;20832;-62
2021/08/25 00:30:25;;;;;;;21.25;14.30;;;14.00;99.90;;;;;;4972014;28;20408;-62
2021/08/25 00:32:51;;;;;;;22.20;14.70;;;14.00;99.90;;;;;;4972447;28;20752;-62
2021/08/25 00:35:17;;;;;;;22.55;14.85;;;14.00;99.90;;;;;;4972549;28;20737;-62
2021/08/25 00:37:43;;;;;;;24.87;13.37;;;14.10;99.90;;;;;;4971485;28;20388;-62
2021/08/25 00:40:10;;;;;;;22.27;15.03;;;14.10;99.90;;;;;;4972403;28;20400;-62
2021/08/25 00:42:36;;;;;;;23.48;14.02;;;14.00;99.90;;;;;;4971705;28;20867;-62
2021/08/25 00:45:06;;;;;;;25.70;15.00;;;14.00;99.90;;;;;;4972432;28;20384;-62
2021/08/25 00:47:40;;;;;;;24.65;15.55;;;13.90;99.90;;;;;;4970732;28;20403;-62
2021/08/25 00:50:07;;;;;;;24.30;15.15;;;14.00;99.90;;;;;;4972296;28;20556;-62
2021/08/25 00:52:38;;;;;;;22.40;14.35;;;14.00;99.90;;;;;;4971424;28;20431;-62
2021/08/25 00:55:05;;;;;;;23.27;14.85;;;14.00;99.90;;;;;;4972368;28;20890;-62
2021/08/25 00:57:32;;;;;;;22.85;14.80;;;14.10;99.90;;;;;;4971282;28;20480;-62
2021/08/25 00:59:58;;;;;;;22.05;13.82;;;14.00;99.90;;;;;;4972118;28;20392;-62
2021/08/25 01:02:34;;;;;;;20.67;14.27;;;14.00;99.90;;;;;;4971703;28;20384;-61
2021/08/25 01:05:02;;;;;;;25.05;14.02;;;14.00;99.90;;;;;;4972323;28;20395;-63
2021/08/25 01:07:33;;;;;;;20.77;14.63;;;14.00;99.90;;;;;;4971139;28;20923;-62
2021/08/25 01:10:00;;;;;;;21.00;14.05;;;14.10;99.90;;;;;;4972359;28;20447;-63
2021/08/25 01:12:26;;;;;;;23.90;15.13;;;14.10;99.90;;;;;;4971370;28;20413;-62
2021/08/25 01:14:51;;;;;;;18.83;12.88;;;14.10;99.90;;;;;;4971947;28;20392;-62
2021/08/25 01:17:22;;;;;;;20.53;14.03;;;14.20;99.90;;;;;;4971680;28;20705;-62
2021/08/25 01:20:06;;;;;;;19.48;13.30;;;14.20;99.90;;;;;;4971535;28;20416;-63
2021/08/25 01:22:32;;;;;;;17.65;12.30;;;14.20;99.90;;;;;;4971102;28;20471;-62
2021/08/25 01:24:58;;;;;;;17.67;12.32;;;14.20;99.90;;;;;;4971971;28;20952;-62
2021/08/25 01:27:28;;;;;;;20.52;13.68;;;14.10;99.90;;;;;;4971143;28;20446;-61
2021/08/25 01:29:54;;;;;;;20.08;13.60;;;14.10;99.90;;;;;;4971627;28;20903;-62
2021/08/25 01:32:19;;;;;;;17.70;11.70;;;14.10;99.90;;;;;;4971884;28;20388;-63
2021/08/25 01:34:56;;;;;;;19.57;12.30;;;14.10;99.90;;;;;;4953522;28;20805;-63
2021/08/25 01:37:23;;;;;;;21.60;13.73;;;14.00;99.90;;;;;;4971502;28;20384;-61
2021/08/25 01:39:50;;;;;;;21.08;12.80;;;13.90;99.90;;;;;;4971200;28;20391;-62
2021/08/25 01:42:17;;;;;;;17.83;12.00;;;13.80;99.90;;;;;;4971367;28;20415;-62
2021/08/25 01:44:44;;;;;;;21.45;13.48;;;13.90;99.90;;;;;;4970560;28;20887;-62
2021/08/25 01:47:11;;;;;;;23.02;13.85;;;13.80;99.90;;;;;;4970473;28;20403;-63
2021/08/25 01:49:37;;;;;;;21.50;13.73;;;13.50;99.90;;;;;;4970454;28;20483;-63
2021/08/25 01:52:04;;;;;;;23.70;13.38;;;13.50;99.90;;;;;;4970928;28;20853;-62
2021/08/25 01:54:30;;;;;;;21.33;14.55;;;13.50;99.90;;;;;;4970561;28;20856;-62
2021/08/25 01:56:55;;;;;;;21.07;14.10;;;13.40;99.90;;;;;;4971361;28;20411;-62
2021/08/25 01:59:21;;;;;;;25.52;15.10;;;13.30;99.90;;;;;;4970103;28;20414;-62
2021/08/25 02:01:47;;;;;;;22.80;15.02;;;13.20;99.90;;;;;;4969576;28;20819;-63
2021/08/25 02:04:12;;;;;;;23.70;14.90;;;13.10;99.90;;;;;;4970664;28;20391;-63
2021/08/25 02:06:38;;;;;;;24.90;15.75;;;13.00;99.90;;;;;;4979835;28;20513;-63
2021/08/25 02:09:03;;;;;;;24.77;15.80;;;13.00;99.90;;;;;;4990302;28;20846;-63
2021/08/25 02:11:29;;;;;;;25.40;15.90;;;13.00;99.90;;;;;;4989521;28;20405;-63
2021/08/25 02:13:55;;;;;;;25.08;15.60;;;12.90;99.90;;;;;;4972714;28;20410;-63
2021/08/25 02:16:21;;;;;;;23.03;15.20;;;13.00;99.90;;;;;;4990357;28;20382;-63
2021/08/25 02:18:46;;;;;;;23.05;14.68;;;12.90;99.90;;;;;;4990103;28;20413;-63
2021/08/25 02:21:13;;;;;;;24.30;15.32;;;12.90;99.90;;;;;;4990160;28;20397;-62
2021/08/25 02:23:39;;;;;;;20.30;13.68;;;12.90;99.90;;;;;;4989461;28;20466;-63
2021/08/25 02:26:05;;;;;;;24.63;14.57;;;12.80;99.90;;;;;;4989961;28;20848;-63
2021/08/25 02:28:30;;;;;;;20.45;14.00;;;12.90;99.90;;;;;;4989260;28;20387;-63
2021/08/25 02:30:56;;;;;;;22.30;14.13;;;12.90;99.90;;;;;;4990012;28;20944;-63
2021/08/25 02:33:22;;;;;;;23.13;14.77;;;12.80;99.90;;;;;;4990114;28;20389;-63
2021/08/25 02:35:48;;;;;;;21.23;13.67;;;12.80;99.90;;;;;;4989614;28;20386;-62
2021/08/25 02:38:13;;;;;;;22.45;14.25;;;12.80;99.90;;;;;;4990014;28;20386;-63
2021/08/25 02:40:41;;;;;;;23.67;14.90;;;12.70;99.90;;;;;;4989172;28;20387;-64
2021/08/25 02:43:06;;;;;;;23.25;14.70;;;12.60;99.90;;;;;;4990192;28;20421;-63
2021/08/25 02:45:32;;;;;;;20.30;13.63;;;12.70;99.90;;;;;;4989313;28;20841;-62
2021/08/25 02:47:58;;;;;;;25.08;15.18;;;12.70;99.90;;;;;;4989748;28;20421;-63
2021/08/25 02:50:24;;;;;;;23.73;14.40;;;12.60;99.90;;;;;;4989499;28;20414;-61
2021/08/25 02:52:50;;;;;;;23.33;15.33;;;12.60;99.90;;;;;;4989040;28;20414;-63
2021/08/25 02:55:15;;;;;;;26.08;14.65;;;12.60;99.90;;;;;;4989109;28;20733;-62
2021/08/25 02:57:41;;;;;;;24.60;15.30;;;12.60;99.90;;;;;;4977470;28;20395;-63
2021/08/25 03:00:08;;;;;;;23.60;15.60;;;12.70;99.90;;;;;;4988109;28;20766;-63
2021/08/25 03:02:33;;;;;;;21.58;14.50;;;12.60;99.90;;;;;;4958659;28;20853;-62
2021/08/25 03:04:59;;;;;;;22.67;14.90;;;12.60;99.90;;;;;;4970309;28;20464;-63
2021/08/25 03:07:25;;;;;;;21.70;14.43;;;12.50;99.90;;;;;;4969990;28;20851;-61
2021/08/25 03:09:50;;;;;;;23.83;14.77;;;12.60;99.90;;;;;;4970731;28;20417;-63
2021/08/25 03:12:16;;;;;;;23.65;15.35;;;12.60;99.90;;;;;;4974356;28;20412;-62
2021/08/25 03:14:42;;;;;;;24.52;16.13;;;12.60;99.90;;;;;;4973867;28;20398;-63
2021/08/25 03:17:09;;;;;;;24.03;14.83;;;12.50;99.90;;;;;;4974242;28;20414;-63
2021/08/25 03:19:35;;;;;;;23.23;14.07;;;12.50;99.90;;;;;;4973505;28;20490;-62
2021/08/25 03:22:00;;;;;;;25.10;15.87;;;12.50;99.90;;;;;;4974168;28;20531;-62
2021/08/25 03:24:26;;;;;;;26.07;15.73;;;12.40;99.90;;;;;;4973708;28;20392;-61
2021/08/25 03:26:52;;;;;;;25.20;15.32;;;12.40;99.90;;;;;;4973834;28;20388;-62
2021/08/25 03:29:17;;;;;;;25.67;15.80;;;12.40;99.90;;;;;;4974142;28;20755;-64
2021/08/25 03:31:43;;;;;;;27.05;15.68;;;12.40;99.90;;;;;;4955824;28;20408;-62
2021/08/25 03:34:09;;;;;;;27.80;16.90;;;12.30;99.90;;;;;;4974134;28;20471;-62
2021/08/25 03:36:34;;;;;;;26.77;16.55;;;12.20;99.90;;;;;;4972725;28;20388;-62
2021/08/25 03:39:00;;;;;;;29.30;16.80;;;12.10;99.90;;;;;;4973422;28;20384;-63
2021/08/25 03:41:25;;;;;;;27.87;17.10;;;12.10;99.90;;;;;;4973071;28;20454;-61
2021/08/25 03:43:51;;;;;;;26.73;16.83;;;12.20;99.90;;;;;;4973008;28;20384;-62
2021/08/25 03:46:17;;;;;;;24.53;15.77;;;12.20;99.90;;;;;;4973760;28;20400;-62
2021/08/25 03:48:42;;;;;;;29.08;16.70;;;12.20;99.90;;;;;;4972866;28;20880;-62
2021/08/25 03:51:08;;;;;;;26.30;16.93;;;12.20;99.90;;;;;;4973295;28;20804;-64
2021/08/25 03:53:34;;;;;;;29.25;17.80;;;12.10;99.90;;;;;;4972922;28;20884;-62
2021/08/25 03:55:59;;;;;;;27.98;17.75;;;12.10;99.90;;;;;;4973515;28;20449;-62
2021/08/25 03:58:25;;;;;;;28.93;18.00;;;12.10;99.90;;;;;;4971879;28;20443;-61
2021/08/25 04:00:52;;;;;;;27.88;17.10;;;12.10;99.90;;;;;;4978306;28;20397;-62
2021/08/25 04:03:18;;;;;;;27.05;16.45;;;12.10;99.90;;;;;;4992896;28;20433;-63
2021/08/25 04:05:44;;;;;;;26.27;16.83;;;12.00;99.90;;;;;;4992189;28;20410;-62
2021/08/25 04:08:09;;;;;;;30.13;16.47;;;12.10;99.90;;;;;;4992863;28;20474;-62
2021/08/25 04:10:40;;;;;;;27.37;16.60;;;13.80;99.90;;;;;;4991811;28;20414;-62
2021/08/25 04:13:06;;;;;;;24.13;15.63;;;12.10;99.90;;;;;;4976109;28;20470;-62
2021/08/25 04:15:31;;;;;;;27.63;16.80;;;12.20;99.90;;;;;;4972057;28;20389;-62
2021/08/25 04:17:57;;;;;;;22.75;15.50;;;12.30;99.90;;;;;;4955437;28;20502;-64
2021/08/25 04:20:23;;;;;;;31.13;17.17;;;12.30;99.90;;;;;;4972650;28;20404;-62
2021/08/25 04:22:49;;;;;;;27.77;16.88;;;12.30;99.90;;;;;;4972290;28;20475;-61
2021/08/25 04:25:15;;;;;;;26.38;16.13;;;12.30;99.90;;;;;;4972890;28;20804;-63
2021/08/25 04:27:41;;;;;;;27.70;17.10;;;12.40;99.90;;;;;;4979390;28;20439;-62
2021/08/25 04:30:07;;;;;;;28.73;16.70;;;12.40;99.90;;;;;;4979216;28;20775;-62
2021/08/25 04:32:32;;;;;;;27.00;17.30;;;12.30;99.90;;;;;;4970745;28;20402;-62
2021/08/25 04:34:59;;;;;;;27.07;17.27;;;12.50;99.90;;;;;;4978504;28;20805;-62
2021/08/25 04:37:24;;;;;;;28.67;17.70;;;12.50;99.90;;;;;;4983371;28;20491;-62
2021/08/25 04:39:50;;;;;;;29.17;17.08;;;12.50;99.90;;;;;;4972116;28;20412;-62
2021/08/25 04:42:16;;;;;;;27.23;17.10;;;12.50;99.90;;;;;;4975725;28;20392;-62
2021/08/25 04:44:41;;;;;;;26.33;15.90;;;12.50;99.90;;;;;;4967967;28;20391;-61
2021/08/25 04:47:07;;;;;;;25.45;15.43;;;12.60;99.90;;;;;;4980397;28;20404;-64
2021/08/25 04:49:33;;;;;;;24.13;16.00;;;12.60;99.90;;;;;;4979380;28;20428;-62
2021/08/25 04:51:58;;;;;;;27.60;16.90;;;12.60;99.90;;;;;;4972384;28;20956;-62
2021/08/25 04:54:24;;;;;;;26.87;16.67;;;12.60;99.90;;;;;;4972916;28;20438;-62
2021/08/25 04:56:50;;;;;;;23.17;15.50;;;12.40;99.90;;;;;;4971556;28;20389;-62
2021/08/25 04:59:16;;;;;;;29.05;16.45;;;12.40;99.90;;;;;;4972295;28;20388;-62
2021/08/25 05:01:41;;;;;;;26.08;17.35;;;12.50;99.90;;;;;;4984828;28;20834;-63
2021/08/25 05:04:07;;;;;;;26.63;17.10;;;12.50;99.90;;;;;;4991475;28;20379;-63
2021/08/25 05:06:33;;;;;;;24.70;16.02;;;12.50;99.90;;;;;;4990807;28;20397;-62
2021/08/25 05:08:58;;;;;;;27.43;17.03;;;12.50;99.90;;;;;;4974295;28;20405;-62
2021/08/25 05:11:24;;;;;;;26.00;16.90;;;12.60;99.90;;;;;;4991460;28;20422;-62
2021/08/25 05:13:50;;;;;;;24.42;15.90;;;12.60;99.90;;;;;;4991017;28;20402;-62
2021/08/25 05:16:15;;;;;;;24.63;16.00;;;12.70;99.90;;;;;;4991496;28;21183;-62
2021/08/25 05:18:42;;;;;;;25.20;16.58;;;12.80;99.90;;;;;;4978984;28;20766;-62
2021/08/25 05:21:08;;;;;;;26.80;16.80;;;12.80;99.90;;;;;;4972139;28;20451;-62
2021/08/25 05:23:34;;;;;;;27.48;15.88;;;12.90;99.90;;;;;;4971510;28;20392;-61
2021/08/25 05:26:00;;;;;;;21.92;15.07;;;12.90;99.90;;;;;;4965794;28;20408;-62
2021/08/25 05:28:26;;;;;;;26.90;15.80;;;13.10;99.90;;;;;;4983470;28;20489;-61
2021/08/25 05:30:52;;;;;;;27.00;16.00;;;13.20;99.90;;;;;;4972441;28;20503;-62
2021/08/25 05:33:17;;;;;;;22.75;14.52;;;13.30;99.90;;;;;;4976091;28;20491;-62
2021/08/25 05:35:43;;;;;;;22.93;15.50;;;13.50;99.90;;;;;;4971923;28;20391;-61
2021/08/25 05:38:09;;;;;;;22.88;14.50;;;13.70;99.90;;;;;;4990469;28;20421;-62
2021/08/25 05:40:35;;;;;;;22.75;15.40;;;13.60;99.90;;;;;;4980875;28;20443;-62
2021/08/25 05:43:00;;;;;;;23.83;14.35;;;13.80;99.90;;;;;;4979504;28;20868;-62
2021/08/25 05:45:26;;;;;;;24.67;15.50;;;14.00;99.90;;;;;;4982251;28;20399;-62
2021/08/25 05:47:58;;;;;;;20.83;14.33;;;14.10;99.90;;;;;;4979510;28;20497;-62
2021/08/25 05:50:25;;;;;;;25.67;14.23;;;14.30;99.90;;;;;;4969440;28;20432;-62
2021/08/25 05:52:51;;;;;;;19.25;13.75;;;14.60;99.90;;;;;;4982559;28;20898;-62
2021/08/25 05:55:17;;;;;;;21.35;13.90;;;14.90;99.90;;;;;;4978919;28;20960;-62
2021/08/25 05:57:46;;;;;;;17.30;11.32;;;15.60;99.90;;;;;;4980155;28;20473;-63
2021/08/25 06:00:15;;;;;;;17.10;11.43;;;16.70;99.90;;;;;;4960899;28;20404;-63
2021/08/25 06:02:42;;;;;;;14.70;10.75;;;18.40;99.90;;;;;;4975012;28;20392;-63
2021/08/25 06:05:09;;;;;;;15.60;10.85;;;20.20;99.90;;;;;;4973038;28;20411;-64
2021/08/25 06:07:34;;;;;;;19.30;12.25;;;21.60;99.90;;;;;;4978577;28;20911;-63
2021/08/25 06:10:01;;;;;;;18.03;12.60;;;22.30;99.90;;;;;;4989590;28;20549;-63
2021/08/25 06:12:27;;;;;;;15.38;10.80;;;22.40;99.90;;;;;;4970705;28;20384;-63
2021/08/25 06:14:52;;;;;;;14.70;10.90;;;22.60;99.90;;;;;;4972987;28;20396;-62
2021/08/25 06:17:18;;;;;;;15.40;10.30;;;22.80;99.90;;;;;;4981203;28;20464;-64
2021/08/25 06:19:43;;;;;;;14.20;10.10;;;22.20;99.90;;;;;;4989037;28;20394;-63
2021/08/25 06:22:09;;;;;;;15.03;10.77;;;22.50;99.90;;;;;;4982727;28;20481;-64
2021/08/25 06:24:35;;;;;;;13.57;10.13;;;23.30;99.90;;;;;;4978138;28;20850;-64
2021/08/25 06:27:01;;;;;;;14.25;10.18;;;23.70;99.90;;;;;;4990011;28;20378;-63
2021/08/25 06:29:27;;;;;;;14.20;10.52;;;23.70;99.90;;;;;;4986246;28;20402;-63
2021/08/25 06:31:53;;;;;;;14.57;10.17;;;24.00;99.90;;;;;;4978639;28;20876;-63
2021/08/25 06:34:18;;;;;;;15.70;14.10;;;24.10;99.90;;;;;;4963209;28;20398;-63
2021/08/25 06:36:44;;;;;;;15.87;13.20;;;24.00;99.90;;;;;;4975177;28;20559;-64
2021/08/25 06:39:10;;;;;;;14.60;10.47;;;24.20;99.90;;;;;;4982374;28;20404;-62
2021/08/25 06:41:36;;;;;;;15.80;12.20;;;23.80;99.90;;;;;;4982882;28;20495;-63
2021/08/25 06:44:02;;;;;;;18.42;16.73;;;25.10;99.90;;;;;;4956255;28;20850;-63
2021/08/25 06:46:28;;;;;;;16.70;15.00;;;25.80;99.90;;;;;;4984711;28;20457;-64
2021/08/25 06:48:53;;;;;;;13.90;10.43;;;27.60;96.30;;;;;;4986962;28;20447;-64
2021/08/25 06:51:19;;;;;;;13.37;10.57;;;27.20;94.90;;;;;;4985236;28;20418;-64
2021/08/25 06:53:45;;;;;;;13.07;10.20;;;26.50;95.40;;;;;;4986825;28;20499;-64
2021/08/25 06:56:10;;;;;;;13.40;9.70;;;26.20;95.20;;;;;;4988215;28;20397;-64
2021/08/25 06:58:36;;;;;;;14.85;10.00;;;26.00;95.80;;;;;;4984304;28;20489;-64
2021/08/25 07:01:02;;;;;;;16.25;14.65;;;25.40;96.50;;;;;;4986965;28;20414;-64
2021/08/25 07:03:27;;;;;;;17.00;15.40;;;24.50;98.20;;;;;;4984612;28;20495;-64
2021/08/25 07:05:53;;;;;;;16.13;14.60;;;24.80;97.70;;;;;;4985859;28;20447;-64
2021/08/25 07:08:18;;;;;;;16.85;15.15;;;25.00;97.60;;;;;;4987824;28;20422;-62
2021/08/25 07:10:44;;;;;;;14.98;13.48;;;25.00;97.70;;;;;;4982058;28;20421;-62
2021/08/25 07:13:10;;;;;;;16.63;14.83;;;25.00;98.30;;;;;;4969936;28;20389;-61
2021/08/25 07:15:35;;;;;;;13.90;12.20;;;25.90;97.20;;;;;;4969126;28;20920;-61
2021/08/25 07:18:01;;;;;;;13.50;9.02;;;26.40;94.70;;;;;;4969958;28;20427;-60
2021/08/25 07:20:27;;;;;;;11.98;9.05;;;27.40;93.10;;;;;;4984561;28;20758;-59
2021/08/25 07:22:53;;;;;;;13.83;11.07;;;27.40;92.30;;;;;;4982280;28;20645;-59
2021/08/25 07:25:18;;;;;;;12.30;8.90;;;27.30;92.10;;;;;;4978813;28;20411;-60
2021/08/25 07:27:44;;;;;;;12.30;9.20;;;28.00;92.10;;;;;;4977259;28;20868;-59
2021/08/25 07:30:10;;;;;;;13.00;9.13;;;28.20;90.40;;;;;;4970808;28;20435;-60
2021/08/25 07:32:38;;;;;;;12.75;8.88;;;28.00;90.30;;;;;;4978373;28;20452;-60
2021/08/25 07:35:04;;;;;;;11.25;8.43;;;27.40;90.40;;;;;;4980034;28;20414;-59
2021/08/25 07:37:30;;;;;;;16.27;11.27;;;26.80;91.60;;;;;;4979643;28;20407;-59
2021/08/25 07:39:56;;;;;;;14.17;12.67;;;26.80;91.10;;;;;;4983810;28;20751;-61
2021/08/25 07:42:21;;;;;;;14.33;12.83;;;26.70;91.80;;;;;;4979202;28;20532;-61
2021/08/25 07:44:47;;;;;;;17.37;14.20;;;26.30;91.60;;;;;;4977282;28;20475;-61
2021/08/25 07:47:13;;;;;;;15.47;13.87;;;26.40;91.90;;;;;;4978889;28;20850;-61
2021/08/25 07:49:38;;;;;;;13.70;12.30;;;26.00;92.80;;;;;;4979091;28;20427;-61
2021/08/25 07:52:04;;;;;;;14.70;13.30;;;26.00;92.70;;;;;;4969385;28;20416;-62
2021/08/25 07:54:31;;;;;;;12.88;10.85;;;26.50;92.50;;;;;;4969259;28;20392;-60
2021/08/25 07:56:56;;;;;;;10.80;8.00;;;27.70;90.60;;;;;;4985059;28;20462;-60
2021/08/25 07:59:22;;;;;;;13.57;8.00;;;28.80;86.50;;;;;;4981709;28;20380;-59
2021/08/25 08:01:48;;;;;;;14.73;8.40;;;28.30;85.70;;;;;;4991616;28;20527;-59
2021/08/25 08:04:14;;;;;;;16.25;9.25;;;27.60;88.10;;;;;;4991999;28;20418;-60
2021/08/25 08:06:39;;;;;;;12.83;8.83;;;27.30;88.70;;;;;;4991231;28;20426;-60
2021/08/25 08:09:05;;;;;;;13.27;9.60;;;27.30;90.10;;;;;;4983845;28;20479;-60
2021/08/25 08:11:31;;;;;;;14.25;8.50;;;28.10;86.90;;;;;;4982780;28;20416;-61
2021/08/25 08:13:56;;;;;;;12.90;8.90;;;28.10;87.60;;;;;;4982004;28;20397;-62
2021/08/25 08:16:22;;;;;;;13.70;9.10;;;28.90;83.50;;;;;;4992199;28;20383;-62
2021/08/25 08:21:41;;;;;;;11.37;7.50;;;28.90;82.60;;;;;;4985909;28;20867;-62
2021/08/25 08:24:07;;;;;;;12.87;8.07;;;28.60;82.30;;;;;;4979660;28;20471;-62
2021/08/25 08:26:33;;;;;;;11.70;7.77;;;27.90;84.20;;;;;;4983198;28;20403;-62
2021/08/25 08:28:59;;;;;;;11.90;8.33;;;27.30;86.50;;;;;;4991595;28;20390;-62
2021/08/25 08:31:26;;;;;;;12.43;8.80;;;27.30;87.30;;;;;;4991853;28;20793;-62
2021/08/25 08:33:52;;;;;;;11.35;8.15;;;27.50;86.10;;;;;;4991407;28;20627;-61
2021/08/25 08:36:17;;;;;;;11.23;7.73;;;27.90;85.30;;;;;;4983238;28;20792;-62
2021/08/25 08:38:43;;;;;;;12.27;7.87;;;29.00;82.10;;;;;;4980580;28;20391;-61
2021/08/25 08:41:09;;;;;;;10.15;7.10;;;29.70;77.20;;;;;;4982751;28;20398;-61
2021/08/25 08:43:41;;;;;;;12.15;7.80;;;28.70;80.50;;;;;;4986062;28;20383;-61
2021/08/25 08:46:07;;;;;;;11.15;7.40;;;29.00;79.50;;;;;;4980201;28;20388;-62
2021/08/25 08:48:34;;;;;;;10.93;7.30;;;29.00;77.60;;;;;;4972347;28;20407;-62
2021/08/25 08:51:01;;;;;;;10.65;7.72;;;29.40;78.40;;;;;;4972146;28;20542;-62
2021/08/25 08:53:27;;;;;;;10.93;7.50;;;30.10;75.90;;;;;;4974093;28;20940;-62
2021/08/25 08:55:52;;;;;;;12.30;7.60;;;30.40;74.80;;;;;;4970574;28;20508;-62
2021/08/25 08:58:18;;;;;;;10.50;6.90;;;29.70;73.00;;;;;;4976334;28;20422;-62
2021/08/25 09:00:44;;;;;;;9.85;6.70;;;28.90;74.90;;;;;;4969315;28;20519;-62
2021/08/25 09:03:21;;;;;;;9.90;6.50;;;29.40;73.40;;;;;;4971205;28;20849;-62
2021/08/25 09:05:56;;;;;;;10.13;6.90;;;29.70;74.30;;;;;;4971273;28;20872;-62
2021/08/25 09:08:29;;;;;;;10.32;6.30;;;29.70;73.10;;;;;;4971178;28;20389;-62
2021/08/25 09:11:06;;;;;;;12.88;6.10;;;29.50;72.50;;;;;;4971529;28;20415;-62
2021/08/25 09:13:37;;;;;;;9.63;5.93;;;29.60;73.00;;;;;;4971060;28;20741;-62
2021/08/25 09:16:04;;;;;;;10.88;6.25;;;30.80;70.80;;;;;;4972664;28;20483;-62
2021/08/25 09:18:30;;;;;;;9.40;6.15;;;31.40;66.70;;;;;;4972051;28;20396;-62
2021/08/25 09:20:56;;;;;;;9.98;6.72;;;31.40;67.70;;;;;;4978394;28;21018;-62
2021/08/25 09:23:27;;;;;;;10.32;6.85;;;31.30;66.20;;;;;;4991193;28;20758;-62
2021/08/25 09:26:08;;;;;;;10.07;6.47;;;31.10;66.50;;;;;;4990327;28;20862;-62
2021/08/25 09:28:37;;;;;;;11.80;5.72;;;31.00;68.00;;;;;;4991578;28;20477;-62
2021/08/25 09:31:10;;;;;;;9.32;5.78;;;31.70;66.10;;;;;;4991098;28;20421;-62
2021/08/25 09:33:43;;;;;;;10.30;5.72;;;32.50;62.20;;;;;;4990879;28;20384;-62
2021/08/25 09:36:13;;;;;;;10.77;7.20;;;31.70;63.40;;;;;;4991619;28;20371;-62
2021/08/25 09:38:41;;;;;;;11.40;6.03;;;31.70;60.60;;;;;;4990830;28;20407;-62
2021/08/25 09:41:12;;;;;;;11.23;6.30;;;30.90;63.00;;;;;;4973602;28;20786;-62
2021/08/25 09:43:45;;;;;;;9.73;5.63;;;30.40;64.00;;;;;;4990493;28;20386;-62
2021/08/25 09:46:23;;;;;;;12.05;6.20;;;30.80;64.40;;;;;;4990920;28;20477;-62
2021/08/25 09:48:55;;;;;;;9.45;6.30;;;30.50;63.10;;;;;;4990256;28;20482;-61
2021/08/25 09:51:26;;;;;;;8.68;5.38;;;29.90;64.80;;;;;;4990075;28;20509;-60
2021/08/25 09:54:07;;;;;;;10.63;5.60;;;30.50;62.30;;;;;;4989910;28;20498;-62
2021/08/25 09:56:35;;;;;;;10.73;9.63;;;30.00;62.20;;;;;;4990163;28;20859;-61
2021/08/25 09:59:06;;;;;;;10.98;9.50;;;29.50;64.30;;;;;;4990468;28;20389;-61
2021/08/25 10:01:32;;;;;;;11.07;9.60;;;29.10;63.10;;;;;;4990831;28;20414;-61
2021/08/25 10:03:58;;;;;;;9.90;8.90;;;29.50;62.30;;;;;;4989620;28;20399;-61
2021/08/25 10:06:25;;;;;;;9.30;7.90;;;30.40;59.80;;;;;;4991115;28;20814;-61
2021/08/25 10:08:52;;;;;;;14.75;8.50;;;30.90;59.30;;;;;;4989555;28;20378;-61
2021/08/25 10:11:22;;;;;;;9.48;8.48;;;30.20;58.80;;;;;;4989760;28;20830;-61
2021/08/25 10:13:48;;;;;;;11.40;8.43;;;29.20;60.30;;;;;;4972145;28;20403;-61
2021/08/25 10:16:45;;;;;;;10.00;8.80;;;29.30;59.90;;;;;;4989567;28;20427;-61
2021/08/25 10:19:37;;;;;;;9.85;7.90;;;29.40;59.40;;;;;;4989505;28;20897;-62
2021/08/25 10:22:10;;;;;;;8.80;7.80;;;29.50;59.10;;;;;;4973565;28;20483;-62
2021/08/25 10:25:04;;;;;;;11.07;8.50;;;30.00;58.40;;;;;;4970306;28;20435;-61
2021/08/25 10:27:32;;;;;;;11.70;8.45;;;29.70;59.10;;;;;;4970480;28;20813;-62
2021/08/25 10:30:01;;;;;;;9.80;8.32;;;30.10;56.90;;;;;;4969390;28;20412;-61
2021/08/25 10:32:27;;;;;;;10.10;9.10;;;30.10;57.10;;;;;;4970789;28;20407;-61
2021/08/25 10:35:11;;;;;;;9.75;8.60;;;30.30;55.40;;;;;;4969617;28;20392;-61
2021/08/25 10:37:37;;;;;;;10.23;8.32;;;29.30;55.90;;;;;;4970339;28;20509;-62
2021/08/25 10:40:04;;;;;;;9.77;8.77;;;28.40;59.00;;;;;;4969224;28;20459;-61
2021/08/25 10:42:55;;;;;;;9.93;4.78;;;27.60;61.30;;;;;;4970243;28;20918;-61
2021/08/25 10:45:39;;;;;;;10.23;5.30;;;27.20;61.40;;;;;;4970352;28;20392;-61
2021/08/25 10:48:09;;;;;;;9.50;5.10;;;26.60;61.80;;;;;;4970053;28;20868;-61
2021/08/25 10:50:48;;;;;;;8.65;4.80;;;26.10;66.20;;;;;;4970283;28;20430;-62
2021/08/25 10:53:29;;;;;;;10.05;4.60;;;25.60;64.30;;;;;;4970113;28;20452;-62
2021/08/25 10:56:09;;;;;;;11.07;4.60;;;25.20;62.70;;;;;;4969672;28;20397;-62
2021/08/25 10:59:06;;;;;;;8.77;4.25;;;25.20;62.30;;;;;;4977427;28;20436;-61
2021/08/25 11:01:32;;;;;;;9.00;4.70;;;25.50;63.60;;;;;;4990113;28;20390;-63
2021/08/25 11:04:01;;;;;;;9.23;4.90;;;25.60;61.70;;;;;;4988886;28;20386;-61
2021/08/25 11:06:36;;;;;;;9.23;5.00;;;25.70;64.80;;;;;;4989623;28;20585;-63
2021/08/25 11:09:11;;;;;;;11.07;5.00;;;25.80;66.60;;;;;;4988891;28;20961;-62
2021/08/25 11:11:37;;;;;;;10.18;4.80;;;25.60;66.80;;;;;;4988884;28;20494;-62
2021/08/25 11:14:03;;;;;;;10.27;4.97;;;25.50;67.00;;;;;;4988746;28;20387;-62
2021/08/25 11:16:29;;;;;;;10.98;4.90;;;25.40;65.60;;;;;;4989288;28;20395;-61
2021/08/25 11:18:54;;;;;;;9.00;4.32;;;25.30;66.40;;;;;;4988850;28;20391;-63
2021/08/25 11:21:20;;;;;;;10.20;4.40;;;25.30;66.00;;;;;;4978835;28;20403;-63
2021/08/25 11:23:56;;;;;;;9.30;5.07;;;25.10;64.40;;;;;;4969210;28;20463;-63
2021/08/25 11:26:22;;;;;;;9.27;5.00;;;25.10;65.90;;;;;;4969784;28;20481;-62
2021/08/25 11:28:49;;;;;;;8.40;4.80;;;25.10;66.20;;;;;;4969243;28;20443;-63
2021/08/25 11:31:25;;;;;;;9.77;4.65;;;25.10;64.90;;;;;;4971254;28;20783;-62
2021/08/25 11:33:52;;;;;;;9.63;4.88;;;24.90;67.00;;;;;;4973048;28;20416;-62
2021/08/25 11:36:17;;;;;;;9.57;4.68;;;25.00;66.50;;;;;;4973782;28;20860;-62
2021/08/25 11:38:43;;;;;;;10.15;4.90;;;24.80;64.80;;;;;;4973015;28;20502;-63
2021/08/25 11:41:09;;;;;;;10.33;4.70;;;24.90;65.20;;;;;;4973339;28;20391;-62
2021/08/25 11:43:46;;;;;;;10.40;5.10;;;25.20;64.70;;;;;;4973499;28;20717;-62
2021/08/25 11:46:21;;;;;;;8.43;4.55;;;25.60;65.50;;;;;;4973435;28;20387;-62
2021/08/25 11:48:47;;;;;;;9.33;5.20;;;25.60;62.10;;;;;;4972649;28;20400;-62
2021/08/25 11:51:13;;;;;;;10.93;4.55;;;25.40;63.60;;;;;;4973064;28;20424;-62
2021/08/25 11:53:42;;;;;;;8.98;4.90;;;24.90;64.60;;;;;;4973223;28;20501;-62
2021/08/25 11:56:08;;;;;;;9.70;5.47;;;24.60;66.50;;;;;;4973157;28;20388;-62
2021/08/25 11:58:37;;;;;;;11.88;5.80;;;24.30;66.90;;;;;;4980032;28;20406;-60
2021/08/25 12:01:04;;;;;;;9.73;5.30;;;23.50;66.90;;;;;;4991980;28;20449;-59
2021/08/25 12:03:43;;;;;;;9.75;5.32;;;23.70;68.00;;;;;;4993043;28;20375;-59
2021/08/25 12:06:10;;;;;;;9.88;4.80;;;24.20;66.90;;;;;;4992537;28;20391;-59
2021/08/25 12:08:42;;;;;;;9.65;5.00;;;24.20;64.80;;;;;;4992719;28;20386;-60
2021/08/25 12:11:10;;;;;;;10.07;5.40;;;24.50;66.00;;;;;;4992729;28;20442;-60
2021/08/25 12:13:46;;;;;;;11.23;4.90;;;24.30;64.60;;;;;;4992263;28;20385;-60
2021/08/25 12:16:22;;;;;;;12.30;5.70;;;24.60;66.20;;;;;;4992331;28;20473;-61
2021/08/25 12:18:50;;;;;;;9.55;5.00;;;24.80;62.90;;;;;;4991759;28;20413;-60
2021/08/25 12:21:16;;;;;;;10.25;5.57;;;24.90;65.10;;;;;;4982318;28;20764;-61
2021/08/25 12:24:04;;;;;;;10.50;5.40;;;24.70;64.30;;;;;;4971274;28;20388;-61
2021/08/25 12:26:32;;;;;;;10.17;5.60;;;24.30;64.60;;;;;;4972728;28;20816;-62
2021/08/25 12:29:00;;;;;;;10.40;4.73;;;24.40;66.50;;;;;;4971701;28;20426;-61
2021/08/25 12:31:30;;;;;;;12.43;5.60;;;24.50;66.60;;;;;;4972672;28;20428;-62
2021/08/25 12:34:11;;;;;;;9.60;5.30;;;24.60;67.40;;;;;;4971776;28;20403;-62
2021/08/25 12:36:39;;;;;;;10.35;5.45;;;24.80;67.30;;;;;;4972814;28;20393;-61
2021/08/25 12:39:10;;;;;;;10.30;5.20;;;24.80;64.80;;;;;;4972003;28;20404;-61